createdAt,value
2018-09-29T00:02:19.395Z,0.80
2018-09-29T00:04:47.941Z,0.83
2018-09-29T00:07:16.568Z,0.90
2018-09-29T00:09:45.244Z,0.80
2018-09-29T00:12:13.968Z,1.00
2018-09-29T00:14:42.540Z,0.80
2018-09-29T00:17:11.063Z,0.80
2018-09-29T00:19:39.643Z,0.70
2018-09-29T00:22:08.171Z,0.80
2018-09-29T00:24:36.700Z,1.00
2018-09-29T00:27:05.271Z,0.80
2018-09-29T00:29:33.817Z,0.90
2018-09-29T00:32:02.476Z,0.90
2018-09-29T00:34:31.048Z,0.90
2018-09-29T00:37:00.046Z,0.90
2018-09-29T00:39:28.571Z,0.90
2018-09-29T00:41:57.120Z,0.97
2018-09-29T00:44:25.643Z,0.90
2018-09-29T00:46:54.211Z,0.80
2018-09-29T00:49:22.748Z,0.73
2018-09-29T00:51:51.319Z,0.70
2018-09-29T00:54:19.871Z,0.90
2018-09-29T00:56:48.404Z,0.90
2018-09-29T00:59:16.959Z,0.80
2018-09-29T01:01:45.480Z,0.90
2018-09-29T01:04:13.999Z,0.90
2018-09-29T01:06:42.579Z,0.80
2018-09-29T01:09:11.114Z,1.13
2018-09-29T01:11:39.664Z,0.80
2018-09-29T01:14:08.172Z,0.90
2018-09-29T01:16:36.754Z,1.00
2018-09-29T01:19:05.340Z,1.10
2018-09-29T01:21:33.887Z,1.00
2018-09-29T01:24:02.433Z,0.93
2018-09-29T01:26:30.995Z,1.20
2018-09-29T01:28:59.513Z,0.80
2018-09-29T01:31:28.040Z,1.10
2018-09-29T01:33:56.584Z,0.87
2018-09-29T01:36:25.116Z,1.07
2018-09-29T01:38:53.652Z,1.30
2018-09-29T01:41:22.167Z,1.00
2018-09-29T01:43:57.991Z,1.43
2018-09-29T01:46:26.546Z,1.40
2018-09-29T01:48:55.074Z,0.93
2018-09-29T01:51:23.671Z,1.00
2018-09-29T01:53:52.192Z,1.20
2018-09-29T01:56:20.747Z,0.90
2018-09-29T01:58:49.287Z,1.20
2018-09-29T02:01:17.855Z,1.20
2018-09-29T02:03:46.431Z,1.40
2018-09-29T02:06:14.969Z,1.30
2018-09-29T02:08:43.520Z,1.10
2018-09-29T02:11:12.100Z,1.10
2018-09-29T02:13:40.644Z,1.10
2018-09-29T02:16:09.167Z,1.07
2018-09-29T02:18:37.791Z,1.10
2018-09-29T02:21:06.911Z,1.40
2018-09-29T02:23:35.778Z,1.20
2018-09-29T02:26:04.290Z,1.17
2018-09-29T02:28:32.836Z,1.40
2018-09-29T02:31:01.390Z,1.30
2018-09-29T02:33:29.926Z,1.63
2018-09-29T02:35:58.464Z,1.50
2018-09-29T02:38:26.997Z,1.33
2018-09-29T02:40:55.583Z,1.30
2018-09-29T02:43:24.180Z,2.53
2018-09-29T02:45:52.836Z,1.33
2018-09-29T02:48:21.396Z,1.87
2018-09-29T02:50:49.956Z,1.17
2018-09-29T02:53:18.596Z,1.80
2018-09-29T02:55:47.151Z,1.20
2018-09-29T02:58:15.701Z,1.40
2018-09-29T03:00:44.259Z,1.70
2018-09-29T03:03:12.789Z,1.60
2018-09-29T03:05:41.379Z,1.57
2018-09-29T03:08:09.909Z,1.40
2018-09-29T03:10:38.462Z,1.40
2018-09-29T03:13:07.072Z,1.40
2018-09-29T03:15:35.707Z,1.60
2018-09-29T03:18:04.261Z,1.73
2018-09-29T03:20:32.812Z,1.23
2018-09-29T03:23:01.362Z,1.40
2018-09-29T03:25:29.957Z,1.67
2018-09-29T03:27:58.535Z,1.80
2018-09-29T03:30:27.173Z,1.80
2018-09-29T03:32:55.812Z,2.33
2018-09-29T03:35:24.384Z,2.07
2018-09-29T03:37:52.920Z,2.03
2018-09-29T03:40:21.476Z,1.93
2018-09-29T03:42:49.995Z,2.27
2018-09-29T03:45:18.527Z,1.53
2018-09-29T03:47:47.077Z,1.90
2018-09-29T03:50:15.656Z,1.80
2018-09-29T03:52:44.192Z,1.80
2018-09-29T03:55:12.742Z,1.77
2018-09-29T03:57:41.315Z,1.70
2018-09-29T04:00:09.852Z,1.73
2018-09-29T04:02:38.409Z,1.87
2018-09-29T04:05:06.981Z,1.60
2018-09-29T04:07:35.494Z,2.00
2018-09-29T04:10:04.128Z,1.87
2018-09-29T04:12:32.656Z,1.90
2018-09-29T04:15:01.251Z,1.93
2018-09-29T04:17:29.855Z,1.77
2018-09-29T04:19:58.398Z,2.00
2018-09-29T04:22:26.976Z,1.90
2018-09-29T04:24:55.525Z,1.83
2018-09-29T04:27:24.085Z,2.00
2018-09-29T04:29:52.708Z,2.10
2018-09-29T04:32:21.286Z,1.77
2018-09-29T04:34:49.825Z,2.13
2018-09-29T04:37:18.355Z,1.43
2018-09-29T04:39:46.901Z,1.60
2018-09-29T04:42:15.467Z,1.87
2018-09-29T04:44:44.009Z,1.80
2018-09-29T04:47:12.565Z,1.90
2018-09-29T04:49:41.172Z,1.63
2018-09-29T04:52:09.712Z,1.77
2018-09-29T04:54:38.260Z,1.67
2018-09-29T04:57:06.849Z,1.50
2018-09-29T04:59:35.395Z,1.67
2018-09-29T05:02:03.945Z,1.60
2018-09-29T05:04:32.480Z,1.50
2018-09-29T05:07:07.472Z,1.63
2018-09-29T05:09:36.017Z,1.50
2018-09-29T05:12:04.543Z,2.20
2018-09-29T05:14:33.141Z,1.80
2018-09-29T05:17:01.732Z,2.00
2018-09-29T05:19:30.287Z,2.40
2018-09-29T05:21:59.114Z,1.50
2018-09-29T05:24:27.665Z,1.87
2018-09-29T05:26:56.217Z,1.80
2018-09-29T05:29:24.752Z,1.90
2018-09-29T05:31:53.295Z,1.80
2018-09-29T05:34:21.927Z,1.83
2018-09-29T05:36:50.451Z,1.80
2018-09-29T05:39:19.163Z,2.30
2018-09-29T05:41:47.711Z,1.70
2018-09-29T05:44:16.281Z,2.00
2018-09-29T05:46:44.838Z,1.90
2018-09-29T05:49:13.368Z,2.00
2018-09-29T05:51:41.930Z,2.20
2018-09-29T05:54:10.468Z,1.97
2018-09-29T05:56:39.025Z,2.20
2018-09-29T05:59:07.571Z,2.17
2018-09-29T06:01:36.111Z,2.30
2018-09-29T06:04:04.684Z,1.83
2018-09-29T06:06:33.265Z,2.00
2018-09-29T06:09:02.908Z,2.23
2018-09-29T06:11:31.477Z,1.80
2018-09-29T06:14:00.014Z,2.07
2018-09-29T06:16:28.572Z,1.73
2018-09-29T06:18:57.165Z,2.10
2018-09-29T06:21:25.727Z,1.90
2018-09-29T06:23:54.287Z,2.20
2018-09-29T06:26:22.820Z,1.90
2018-09-29T06:28:51.375Z,2.00
2018-09-29T06:31:19.932Z,1.60
2018-09-29T06:33:48.514Z,2.83
2018-09-29T06:36:17.062Z,1.90
2018-09-29T06:38:45.602Z,1.73
2018-09-29T06:41:14.574Z,1.57
2018-09-29T06:43:43.144Z,1.90
2018-09-29T06:46:11.708Z,1.63
2018-09-29T06:48:40.237Z,1.67
2018-09-29T06:51:08.806Z,1.53
2018-09-29T06:53:37.464Z,1.50
2018-09-29T06:56:06.114Z,1.50
2018-09-29T06:58:34.673Z,2.27
2018-09-29T07:01:03.846Z,2.00
2018-09-29T07:03:32.415Z,1.20
2018-09-29T07:06:00.962Z,1.50
2018-09-29T07:08:29.520Z,1.43
2018-09-29T07:10:58.092Z,1.20
2018-09-29T07:13:27.037Z,1.27
2018-09-29T07:15:55.573Z,1.30
2018-09-29T07:18:24.160Z,1.30
2018-09-29T07:20:52.731Z,1.30
2018-09-29T07:23:21.369Z,1.73
2018-09-29T07:25:49.888Z,1.20
2018-09-29T07:28:18.410Z,1.67
2018-09-29T07:30:46.951Z,1.60
2018-09-29T07:33:15.510Z,1.30
2018-09-29T07:35:44.082Z,1.30
2018-09-29T07:38:12.624Z,1.50
2018-09-29T07:40:41.188Z,1.17
2018-09-29T07:43:09.725Z,1.10
2018-09-29T07:45:38.323Z,1.40
2018-09-29T07:48:06.865Z,1.30
2018-09-29T07:50:35.426Z,1.30
2018-09-29T07:53:04.168Z,1.10
2018-09-29T07:55:32.744Z,1.43
2018-09-29T07:58:01.273Z,1.60
2018-09-29T08:00:29.834Z,1.40
2018-09-29T08:02:58.391Z,1.30
2018-09-29T08:05:26.993Z,1.20
2018-09-29T08:07:55.604Z,1.53
2018-09-29T08:10:24.168Z,1.40
2018-09-29T08:12:52.739Z,1.40
2018-09-29T08:15:21.486Z,1.30
2018-09-29T08:17:50.113Z,0.90
2018-09-29T08:20:18.665Z,1.40
2018-09-29T08:22:47.201Z,1.10
2018-09-29T08:25:15.746Z,1.00
2018-09-29T08:27:44.279Z,1.20
2018-09-29T08:30:12.906Z,1.70
2018-09-29T08:32:41.710Z,1.00
2018-09-29T08:35:10.276Z,1.30
2018-09-29T08:37:38.867Z,1.50
2018-09-29T08:40:07.684Z,1.10
2018-09-29T08:42:36.447Z,1.10
2018-09-29T08:45:05.245Z,1.30
2018-09-29T08:47:34.044Z,1.00
2018-09-29T08:50:02.616Z,1.20
2018-09-29T08:52:31.248Z,1.30
2018-09-29T08:54:59.793Z,1.20
2018-09-29T08:57:28.363Z,1.23
2018-09-29T08:59:56.931Z,1.10
2018-09-29T09:02:25.492Z,1.20
2018-09-29T09:04:54.214Z,1.40
2018-09-29T09:07:22.854Z,1.30
2018-09-29T09:09:51.383Z,1.17
2018-09-29T09:12:19.948Z,1.03
2018-09-29T09:14:48.499Z,1.30
2018-09-29T09:17:17.320Z,1.40
2018-09-29T09:19:45.956Z,1.10
2018-09-29T09:22:14.519Z,1.40
2018-09-29T09:24:43.072Z,1.40
2018-09-29T09:27:12.242Z,1.20
2018-09-29T09:29:41.044Z,1.10
2018-09-29T09:32:09.919Z,1.37
2018-09-29T09:34:38.787Z,1.30
2018-09-29T09:37:07.396Z,1.20
2018-09-29T09:39:36.032Z,1.40
2018-09-29T09:42:04.613Z,1.20
2018-09-29T09:44:33.146Z,1.27
2018-09-29T09:47:01.696Z,1.10
2018-09-29T09:49:30.275Z,1.20
2018-09-29T09:51:58.936Z,1.90
2018-09-29T09:54:27.521Z,1.53
2018-09-29T09:56:56.157Z,1.30
2018-09-29T09:59:25.023Z,1.30
2018-09-29T10:01:58.905Z,1.20
2018-09-29T10:04:27.541Z,1.30
2018-09-29T10:06:56.204Z,1.23
2018-09-29T10:09:24.749Z,1.40
2018-09-29T10:11:53.484Z,1.40
2018-09-29T10:14:22.046Z,1.50
2018-09-29T10:16:50.648Z,1.27
2018-09-29T10:19:19.291Z,2.17
2018-09-29T10:21:47.932Z,1.47
2018-09-29T10:24:16.467Z,1.40
2018-09-29T10:26:45.041Z,1.43
2018-09-29T10:29:14.528Z,1.40
2018-09-29T10:31:44.103Z,1.37
2018-09-29T10:34:12.688Z,1.47
2018-09-29T10:36:41.341Z,1.60
2018-09-29T10:39:11.521Z,1.53
2018-09-29T10:41:40.350Z,1.37
2018-09-29T10:44:09.346Z,1.63
2018-09-29T10:46:37.845Z,1.53
2018-09-29T10:49:06.423Z,1.60
2018-09-29T10:51:35.016Z,1.67
2018-09-29T10:54:03.637Z,1.47
2018-09-29T10:56:32.200Z,1.40
2018-09-29T10:59:01.210Z,1.40
2018-09-29T11:01:29.756Z,1.60
2018-09-29T11:03:58.278Z,1.73
2018-09-29T11:06:26.878Z,1.60
2018-09-29T11:08:55.471Z,1.50
2018-09-29T11:11:24.185Z,1.63
2018-09-29T11:13:52.780Z,1.30
2018-09-29T11:16:21.493Z,1.53
2018-09-29T11:18:50.147Z,1.80
2018-09-29T11:21:18.872Z,1.87
2018-09-29T11:23:47.415Z,1.90
2018-09-29T11:26:16.019Z,1.80
2018-09-29T11:28:44.566Z,1.93
2018-09-29T11:31:13.807Z,1.70
2018-09-29T11:33:42.411Z,2.00
2018-09-29T11:36:10.965Z,2.20
2018-09-29T11:38:39.567Z,1.90
2018-09-29T11:41:08.117Z,1.90
2018-09-29T11:43:36.672Z,1.87
2018-09-29T11:46:05.243Z,2.20
2018-09-29T11:48:33.850Z,1.80
2018-09-29T11:51:02.469Z,2.10
2018-09-29T11:53:31.047Z,1.80
2018-09-29T11:55:59.590Z,2.10
2018-09-29T11:58:28.145Z,1.93
2018-09-29T12:00:56.784Z,1.93
2018-09-29T12:03:25.316Z,2.00
2018-09-29T12:05:53.938Z,2.00
2018-09-29T12:08:22.552Z,1.77
2018-09-29T12:10:51.171Z,1.80
2018-09-29T12:13:19.752Z,1.43
2018-09-29T12:15:48.300Z,1.57
2018-09-29T12:18:17.114Z,1.30
2018-09-29T12:20:45.956Z,1.33
2018-09-29T12:23:15.507Z,1.37
2018-09-29T12:25:44.202Z,1.40
2018-09-29T12:28:12.951Z,1.60
2018-09-29T12:30:41.509Z,1.50
2018-09-29T12:33:10.083Z,1.70
2018-09-29T12:35:38.647Z,1.60
2018-09-29T12:38:07.176Z,1.30
2018-09-29T12:40:35.844Z,1.40
2018-09-29T12:43:04.709Z,1.60
2018-09-29T12:45:33.264Z,1.67
2018-09-29T12:48:01.940Z,1.20
2018-09-29T12:50:30.484Z,1.43
2018-09-29T12:52:59.125Z,1.27
2018-09-29T12:55:27.696Z,1.40
2018-09-29T12:57:56.269Z,1.70
2018-09-29T13:00:25.275Z,1.60
2018-09-29T13:02:54.271Z,1.70
2018-09-29T13:05:23.046Z,1.80
2018-09-29T13:07:51.633Z,1.20
2018-09-29T13:10:20.416Z,1.80
2018-09-29T13:12:49.093Z,1.40
2018-09-29T13:15:17.644Z,1.47
2018-09-29T13:17:46.461Z,1.13
2018-09-29T13:20:15.037Z,1.37
2018-09-29T13:22:43.627Z,1.30
2018-09-29T13:25:12.407Z,1.40
2018-09-29T13:27:41.094Z,1.37
2018-09-29T13:30:09.724Z,1.60
2018-09-29T13:32:38.288Z,1.37
2018-09-29T13:35:06.940Z,1.37
2018-09-29T13:37:35.476Z,1.30
2018-09-29T13:40:04.164Z,2.33
2018-09-29T13:42:32.791Z,1.53
2018-09-29T13:45:01.848Z,1.40
2018-09-29T13:47:30.604Z,1.80
2018-09-29T13:49:59.485Z,2.00
2018-09-29T13:52:28.243Z,1.43
2018-09-29T13:54:57.049Z,1.30
2018-09-29T13:57:25.732Z,1.50
2018-09-29T13:59:54.761Z,1.40
2018-09-29T14:02:23.863Z,1.53
2018-09-29T14:04:52.660Z,1.77
2018-09-29T14:07:21.893Z,1.40
2018-09-29T14:09:50.647Z,1.23
2018-09-29T14:12:19.676Z,1.33
2018-09-29T14:14:48.432Z,1.40
2018-09-29T14:17:17.075Z,1.57
2018-09-29T14:19:45.990Z,1.10
2018-09-29T14:22:15.772Z,1.50
2018-09-29T14:24:44.653Z,1.67
2018-09-29T14:27:13.392Z,1.40
2018-09-29T14:29:42.395Z,1.50
2018-09-29T14:32:10.995Z,1.50
2018-09-29T14:34:39.746Z,1.57
2018-09-29T14:37:08.938Z,1.60
2018-09-29T14:39:37.621Z,1.40
2018-09-29T14:42:06.415Z,1.47
2018-09-29T14:44:41.443Z,1.57
2018-09-29T14:47:10.092Z,1.87
2018-09-29T14:49:38.683Z,1.40
2018-09-29T14:52:07.569Z,1.30
2018-09-29T14:54:36.171Z,1.23
2018-09-29T14:57:04.969Z,1.30
2018-09-29T14:59:33.562Z,1.60
2018-09-29T15:02:02.629Z,1.30
2018-09-29T15:04:31.445Z,1.50
2018-09-29T15:07:00.241Z,1.70
2018-09-29T15:09:28.803Z,1.70
2018-09-29T15:11:57.657Z,1.40
2018-09-29T15:14:26.301Z,1.80
2018-09-29T15:16:55.251Z,1.70
2018-09-29T15:19:24.309Z,1.50
2018-09-29T15:21:53.151Z,1.37
2018-09-29T15:24:21.716Z,0.97
2018-09-29T15:26:50.734Z,1.40
2018-09-29T15:29:19.368Z,1.50
2018-09-29T15:31:47.959Z,1.73
2018-09-29T15:34:16.515Z,1.13
2018-09-29T15:36:45.810Z,1.27
2018-09-29T15:39:14.359Z,1.60
2018-09-29T15:41:43.285Z,1.17
2018-09-29T15:44:12.068Z,1.30
2018-09-29T15:46:40.636Z,1.27
2018-09-29T15:49:09.216Z,1.27
2018-09-29T15:51:37.846Z,1.40
2018-09-29T15:54:06.428Z,1.30
2018-09-29T15:56:35.387Z,1.50
2018-09-29T15:59:04.073Z,1.60
2018-09-29T16:01:32.802Z,1.50
2018-09-29T16:04:01.931Z,1.40
2018-09-29T16:06:30.545Z,1.20
2018-09-29T16:08:59.465Z,1.40
2018-09-29T16:11:28.031Z,1.23
2018-09-29T16:13:56.631Z,1.27
2018-09-29T16:16:25.433Z,1.13
2018-09-29T16:18:54.004Z,1.27
2018-09-29T16:21:22.601Z,1.40
2018-09-29T16:23:51.232Z,1.30
2018-09-29T16:26:19.817Z,1.43
2018-09-29T16:28:48.740Z,1.10
2018-09-29T16:31:18.188Z,1.43
2018-09-29T16:33:46.848Z,1.30
2018-09-29T16:36:15.756Z,1.40
2018-09-29T16:38:44.295Z,1.30
2018-09-29T16:41:12.924Z,1.30
2018-09-29T16:43:41.659Z,1.40
2018-09-29T16:46:10.273Z,1.63
2018-09-29T16:48:38.825Z,1.80
2018-09-29T16:51:07.399Z,1.23
2018-09-29T16:53:35.949Z,1.50
2018-09-29T16:56:04.523Z,1.40
2018-09-29T16:58:33.110Z,1.30
2018-09-29T17:01:02.098Z,1.30
2018-09-29T17:03:31.006Z,1.57
2018-09-29T17:05:59.764Z,1.63
2018-09-29T17:08:28.762Z,1.33
2018-09-29T17:10:57.500Z,1.43
2018-09-29T17:13:26.200Z,1.20
2018-09-29T17:15:54.909Z,1.50
2018-09-29T17:18:23.881Z,1.30
2018-09-29T17:20:52.985Z,1.60
2018-09-29T17:23:22.078Z,1.60
2018-09-29T17:25:51.521Z,1.40
2018-09-29T17:28:20.723Z,1.30
2018-09-29T17:30:49.313Z,1.40
2018-09-29T17:33:18.463Z,1.47
2018-09-29T17:35:47.952Z,1.50
2018-09-29T17:38:17.128Z,1.27
2018-09-29T17:40:46.344Z,1.40
2018-09-29T17:43:14.880Z,1.60
2018-09-29T17:45:43.699Z,1.50
2018-09-29T17:48:12.268Z,1.50
2018-09-29T17:50:40.865Z,1.40
2018-09-29T17:53:09.904Z,1.03
2018-09-29T17:55:38.490Z,1.40
2018-09-29T17:58:07.212Z,1.37
2018-09-29T18:00:35.851Z,1.40
2018-09-29T18:03:04.419Z,1.57
2018-09-29T18:05:33.265Z,1.30
2018-09-29T18:08:01.819Z,1.50
2018-09-29T18:10:30.495Z,1.43
2018-09-29T18:12:59.122Z,1.30
2018-09-29T18:15:28.691Z,1.43
2018-09-29T18:17:57.463Z,1.53
2018-09-29T18:20:26.048Z,1.27
2018-09-29T18:22:54.603Z,1.87
2018-09-29T18:25:23.177Z,1.50
2018-09-29T18:27:51.799Z,1.37
2018-09-29T18:30:20.657Z,1.20
2018-09-29T18:32:49.330Z,1.40
2018-09-29T18:35:19.016Z,1.33
2018-09-29T18:37:47.585Z,1.70
2018-09-29T18:40:16.592Z,1.50
2018-09-29T18:42:45.542Z,1.30
2018-09-29T18:45:14.080Z,1.70
2018-09-29T18:47:42.634Z,1.70
2018-09-29T18:50:11.579Z,1.77
2018-09-29T18:52:40.571Z,1.40
2018-09-29T18:55:09.772Z,1.30
2018-09-29T18:57:38.775Z,1.27
2018-09-29T19:00:08.003Z,1.33
2018-09-29T19:02:36.780Z,1.30
2018-09-29T19:05:05.559Z,1.40
2018-09-29T19:07:34.112Z,1.63
2018-09-29T19:10:03.085Z,1.10
2018-09-29T19:12:31.668Z,1.30
2018-09-29T19:15:00.627Z,1.20
2018-09-29T19:17:29.453Z,1.60
2018-09-29T19:19:58.229Z,1.10
2018-09-29T19:22:27.105Z,1.10
2018-09-29T19:24:55.925Z,1.20
2018-09-29T19:27:24.499Z,1.33
2018-09-29T19:29:53.109Z,1.53
2018-09-29T19:32:21.658Z,1.40
2018-09-29T19:34:50.337Z,1.50
2018-09-29T19:37:19.726Z,1.80
2018-09-29T19:39:48.703Z,1.30
2018-09-29T19:42:17.203Z,1.47
2018-09-29T19:44:45.781Z,1.23
2018-09-29T19:47:21.292Z,1.30
2018-09-29T19:49:49.961Z,1.40
2018-09-29T19:52:18.936Z,1.27
2018-09-29T19:54:47.613Z,1.30
2018-09-29T19:57:16.485Z,1.37
2018-09-29T19:59:45.085Z,1.30
2018-09-29T20:02:13.860Z,1.27
2018-09-29T20:04:42.420Z,1.30
2018-09-29T20:07:11.002Z,1.40
2018-09-29T20:09:39.534Z,1.13
2018-09-29T20:12:08.215Z,1.20
2018-09-29T20:14:36.907Z,1.60
2018-09-29T20:17:05.677Z,1.30
2018-09-29T20:19:34.289Z,1.30
2018-09-29T20:22:02.997Z,1.60
2018-09-29T20:24:31.821Z,1.17
2018-09-29T20:27:00.372Z,1.57
2018-09-29T20:29:29.038Z,1.37
2018-09-29T20:31:57.580Z,1.50
2018-09-29T20:34:26.282Z,1.50
2018-09-29T20:36:54.872Z,1.17
2018-09-29T20:39:23.873Z,1.20
2018-09-29T20:41:52.441Z,1.30
2018-09-29T20:44:21.045Z,1.20
2018-09-29T20:46:49.590Z,1.30
2018-09-29T20:49:18.138Z,1.50
2018-09-29T20:51:46.796Z,1.27
2018-09-29T20:54:15.330Z,1.27
2018-09-29T20:56:43.919Z,1.27
2018-09-29T20:59:12.532Z,1.37
2018-09-29T21:01:41.083Z,1.10
2018-09-29T21:04:09.625Z,1.70
2018-09-29T21:06:38.205Z,1.27
2018-09-29T21:09:08.421Z,1.30
2018-09-29T21:11:37.270Z,1.47
2018-09-29T21:14:06.215Z,1.17
2018-09-29T21:16:34.876Z,1.37
2018-09-29T21:19:03.648Z,1.67
2018-09-29T21:21:32.249Z,1.13
2018-09-29T21:24:00.791Z,1.57
2018-09-29T21:26:29.363Z,1.10
2018-09-29T21:28:57.991Z,1.40
2018-09-29T21:31:26.561Z,1.40
2018-09-29T21:33:55.132Z,1.40
2018-09-29T21:36:23.758Z,1.30
2018-09-29T21:38:52.290Z,1.10
2018-09-29T21:41:21.249Z,1.23
2018-09-29T21:43:49.831Z,1.63
2018-09-29T21:46:18.432Z,1.20
2018-09-29T21:48:47.277Z,1.60
2018-09-29T21:51:15.942Z,1.33
2018-09-29T21:53:44.544Z,1.20
2018-09-29T21:56:13.228Z,1.50
2018-09-29T21:58:42.452Z,1.60
2018-09-29T22:01:16.754Z,1.40
2018-09-29T22:03:45.309Z,1.60
2018-09-29T22:06:13.856Z,1.30
2018-09-29T22:08:42.442Z,1.33
2018-09-29T22:11:11.221Z,1.53
2018-09-29T22:13:39.932Z,1.40
2018-09-29T22:16:08.491Z,2.03
2018-09-29T22:18:37.055Z,1.40
2018-09-29T22:21:06.037Z,1.37
2018-09-29T22:23:34.512Z,1.40
2018-09-29T22:26:03.069Z,1.40
2018-09-29T22:28:31.708Z,1.87
2018-09-29T22:31:00.255Z,1.80
2018-09-29T22:33:28.900Z,1.87
2018-09-29T22:35:57.439Z,1.60
2018-09-29T22:38:26.359Z,1.43
2018-09-29T22:40:54.952Z,1.40
2018-09-29T22:43:24.019Z,1.60
2018-09-29T22:45:52.576Z,1.47
2018-09-29T22:48:21.132Z,1.60
2018-09-29T22:50:49.796Z,1.67
2018-09-29T22:53:18.417Z,1.57
2018-09-29T22:55:47.044Z,1.63
2018-09-29T22:58:15.597Z,1.63
2018-09-29T23:00:44.147Z,1.70
2018-09-29T23:03:12.755Z,1.60
2018-09-29T23:05:41.424Z,1.63
2018-09-29T23:08:09.990Z,1.57
2018-09-29T23:10:38.658Z,1.70
2018-09-29T23:13:07.216Z,1.40
2018-09-29T23:15:43.437Z,1.90
2018-09-29T23:18:12.056Z,2.00
2018-09-29T23:20:40.770Z,1.83
2018-09-29T23:23:09.456Z,2.10
2018-09-29T23:25:38.008Z,2.00
2018-09-29T23:28:06.581Z,1.70
2018-09-29T23:30:35.162Z,1.60
2018-09-29T23:33:03.719Z,2.00
2018-09-29T23:35:32.281Z,2.17
2018-09-29T23:38:00.869Z,1.80
2018-09-29T23:40:29.396Z,1.60
2018-09-29T23:42:57.914Z,1.70
2018-09-29T23:45:26.450Z,1.73
2018-09-29T23:47:55.010Z,1.63
2018-09-29T23:50:23.561Z,1.60
2018-09-29T23:52:52.134Z,2.00
2018-09-29T23:55:20.922Z,1.40
2018-09-29T23:57:49.495Z,1.67
